sensor_id;sensor_type;location;lat;lon;timestamp;P1;durP1;ratioP1;P2;durP2;ratioP2
12232;SDS011;6179;51.748;8.728;2023-11-21T00:02:47;3.47;;;3.17;;
12232;SDS011;6179;51.748;8.728;2023-11-21T00:08:48;4.67;;;3.60;;
12232;SDS011;6179;51.748;8.728;2023-11-21T00:14:49;7.80;;;3.80;;
12232;SDS011;6179;51.748;8.728;2023-11-21T00:20:50;12.00;;;4.00;;
12232;SDS011;6179;51.748;8.728;2023-11-21T00:26:51;7.17;;;3.47;;
12232;SDS011;6179;51.748;8.728;2023-11-21T00:32:53;9.50;;;3.80;;
12232;SDS011;6179;51.748;8.728;2023-11-21T00:38:54;11.40;;;4.53;;
12232;SDS011;6179;51.748;8.728;2023-11-21T00:44:55;9.10;;;4.40;;
12232;SDS011;6179;51.748;8.728;2023-11-21T00:50:57;8.43;;;3.43;;
12232;SDS011;6179;51.748;8.728;2023-11-21T00:56:58;5.23;;;3.30;;
12232;SDS011;6179;51.748;8.728;2023-11-21T01:02:59;5.93;;;4.03;;
12232;SDS011;6179;51.748;8.728;2023-11-21T01:09:00;6.70;;;4.30;;
12232;SDS011;6179;51.748;8.728;2023-11-21T01:15:04;11.57;;;3.77;;
12232;SDS011;6179;51.748;8.728;2023-11-21T01:21:09;9.97;;;4.07;;
12232;SDS011;6179;51.748;8.728;2023-11-21T01:27:10;9.13;;;3.27;;
12232;SDS011;6179;51.748;8.728;2023-11-21T01:33:11;17.73;;;3.30;;
12232;SDS011;6179;51.748;8.728;2023-11-21T01:39:13;11.93;;;3.83;;
12232;SDS011;6179;51.748;8.728;2023-11-21T01:45:16;19.43;;;3.70;;
12232;SDS011;6179;51.748;8.728;2023-11-21T01:51:17;10.60;;;3.50;;
12232;SDS011;6179;51.748;8.728;2023-11-21T01:57:19;12.17;;;3.47;;
12232;SDS011;6179;51.748;8.728;2023-11-21T02:03:21;4.83;;;3.00;;
12232;SDS011;6179;51.748;8.728;2023-11-21T02:09:25;7.30;;;2.80;;
12232;SDS011;6179;51.748;8.728;2023-11-21T02:15:27;8.60;;;3.30;;
12232;SDS011;6179;51.748;8.728;2023-11-21T02:21:28;5.67;;;3.10;;
12232;SDS011;6179;51.748;8.728;2023-11-21T02:27:30;6.97;;;3.60;;
12232;SDS011;6179;51.748;8.728;2023-11-21T02:33:31;6.97;;;3.40;;
12232;SDS011;6179;51.748;8.728;2023-11-21T02:39:34;6.43;;;3.70;;
12232;SDS011;6179;51.748;8.728;2023-11-21T02:45:35;5.10;;;2.70;;
12232;SDS011;6179;51.748;8.728;2023-11-21T02:51:36;6.27;;;3.10;;
12232;SDS011;6179;51.748;8.728;2023-11-21T02:57:38;9.87;;;3.93;;
12232;SDS011;6179;51.748;8.728;2023-11-21T03:03:40;8.50;;;3.67;;
12232;SDS011;6179;51.748;8.728;2023-11-21T03:09:41;5.43;;;3.20;;
12232;SDS011;6179;51.748;8.728;2023-11-21T03:15:42;10.07;;;4.27;;
12232;SDS011;6179;51.748;8.728;2023-11-21T03:21:44;7.90;;;4.23;;
12232;SDS011;6179;51.748;8.728;2023-11-21T03:27:45;7.53;;;3.30;;
12232;SDS011;6179;51.748;8.728;2023-11-21T03:33:46;7.43;;;4.33;;
12232;SDS011;6179;51.748;8.728;2023-11-21T03:39:47;12.33;;;3.90;;
12232;SDS011;6179;51.748;8.728;2023-11-21T03:45:48;6.20;;;4.47;;
12232;SDS011;6179;51.748;8.728;2023-11-21T03:51:49;5.53;;;3.50;;
12232;SDS011;6179;51.748;8.728;2023-11-21T03:57:51;13.00;;;4.20;;
12232;SDS011;6179;51.748;8.728;2023-11-21T04:03:52;7.20;;;3.77;;
12232;SDS011;6179;51.748;8.728;2023-11-21T04:09:53;15.03;;;3.93;;
12232;SDS011;6179;51.748;8.728;2023-11-21T04:15:55;7.73;;;4.07;;
12232;SDS011;6179;51.748;8.728;2023-11-21T04:21:56;9.57;;;3.57;;
12232;SDS011;6179;51.748;8.728;2023-11-21T04:27:57;7.53;;;3.87;;
12232;SDS011;6179;51.748;8.728;2023-11-21T04:33:58;6.60;;;4.30;;
12232;SDS011;6179;51.748;8.728;2023-11-21T04:40:00;9.13;;;3.93;;
12232;SDS011;6179;51.748;8.728;2023-11-21T04:46:01;7.80;;;4.53;;
12232;SDS011;6179;51.748;8.728;2023-11-21T04:52:02;7.37;;;4.57;;
12232;SDS011;6179;51.748;8.728;2023-11-21T04:58:07;10.30;;;4.20;;
12232;SDS011;6179;51.748;8.728;2023-11-21T05:04:08;9.40;;;3.70;;
12232;SDS011;6179;51.748;8.728;2023-11-21T05:10:09;9.90;;;5.10;;
12232;SDS011;6179;51.748;8.728;2023-11-21T05:16:12;14.87;;;5.13;;
12232;SDS011;6179;51.748;8.728;2023-11-21T05:22:14;10.03;;;5.70;;
12232;SDS011;6179;51.748;8.728;2023-11-21T05:28:15;4.80;;;4.00;;
12232;SDS011;6179;51.748;8.728;2023-11-21T05:34:16;7.37;;;3.77;;
12232;SDS011;6179;51.748;8.728;2023-11-21T05:40:18;12.60;;;5.03;;
12232;SDS011;6179;51.748;8.728;2023-11-21T05:46:22;4.67;;;3.17;;
12232;SDS011;6179;51.748;8.728;2023-11-21T05:52:23;8.10;;;4.27;;
12232;SDS011;6179;51.748;8.728;2023-11-21T05:58:24;11.23;;;4.83;;
12232;SDS011;6179;51.748;8.728;2023-11-21T06:04:25;9.60;;;5.07;;
12232;SDS011;6179;51.748;8.728;2023-11-21T06:10:26;7.50;;;4.27;;
12232;SDS011;6179;51.748;8.728;2023-11-21T06:16:28;26.53;;;4.60;;
12232;SDS011;6179;51.748;8.728;2023-11-21T06:22:29;5.93;;;3.87;;
12232;SDS011;6179;51.748;8.728;2023-11-21T06:28:30;8.80;;;3.73;;
12232;SDS011;6179;51.748;8.728;2023-11-21T06:34:31;7.80;;;3.87;;
12232;SDS011;6179;51.748;8.728;2023-11-21T06:40:33;8.67;;;4.57;;
12232;SDS011;6179;51.748;8.728;2023-11-21T06:46:34;17.77;;;5.67;;
12232;SDS011;6179;51.748;8.728;2023-11-21T06:52:35;16.77;;;7.07;;
12232;SDS011;6179;51.748;8.728;2023-11-21T06:58:36;13.60;;;6.83;;
12232;SDS011;6179;51.748;8.728;2023-11-21T07:04:37;12.30;;;7.20;;
12232;SDS011;6179;51.748;8.728;2023-11-21T07:10:38;16.83;;;6.50;;
12232;SDS011;6179;51.748;8.728;2023-11-21T07:16:40;13.13;;;6.10;;
12232;SDS011;6179;51.748;8.728;2023-11-21T07:22:41;12.37;;;5.93;;
12232;SDS011;6179;51.748;8.728;2023-11-21T07:28:42;19.77;;;7.07;;
12232;SDS011;6179;51.748;8.728;2023-11-21T07:34:43;18.60;;;7.00;;
12232;SDS011;6179;51.748;8.728;2023-11-21T07:40:44;17.10;;;6.73;;
12232;SDS011;6179;51.748;8.728;2023-11-21T07:46:46;10.73;;;6.07;;
12232;SDS011;6179;51.748;8.728;2023-11-21T07:52:47;14.00;;;6.97;;
12232;SDS011;6179;51.748;8.728;2023-11-21T07:58:49;19.30;;;8.20;;
12232;SDS011;6179;51.748;8.728;2023-11-21T08:04:50;20.90;;;9.47;;
12232;SDS011;6179;51.748;8.728;2023-11-21T08:10:51;28.40;;;9.63;;
12232;SDS011;6179;51.748;8.728;2023-11-21T08:16:56;20.33;;;8.50;;
12232;SDS011;6179;51.748;8.728;2023-11-21T08:22:57;23.53;;;10.70;;
12232;SDS011;6179;51.748;8.728;2023-11-21T08:28:58;26.13;;;10.50;;
12232;SDS011;6179;51.748;8.728;2023-11-21T08:35:00;23.50;;;11.60;;
12232;SDS011;6179;51.748;8.728;2023-11-21T08:41:02;21.00;;;10.10;;
12232;SDS011;6179;51.748;8.728;2023-11-21T08:47:07;29.10;;;11.13;;
12232;SDS011;6179;51.748;8.728;2023-11-21T08:53:08;24.13;;;12.30;;
12232;SDS011;6179;51.748;8.728;2023-11-21T08:59:11;23.37;;;11.07;;
12232;SDS011;6179;51.748;8.728;2023-11-21T09:05:14;21.77;;;10.80;;
12232;SDS011;6179;51.748;8.728;2023-11-21T09:11:17;19.30;;;10.00;;
12232;SDS011;6179;51.748;8.728;2023-11-21T09:17:18;22.17;;;9.50;;
12232;SDS011;6179;51.748;8.728;2023-11-21T09:23:20;17.13;;;9.60;;
12232;SDS011;6179;51.748;8.728;2023-11-21T09:29:21;22.13;;;10.03;;
12232;SDS011;6179;51.748;8.728;2023-11-21T09:35:22;17.50;;;8.83;;
12232;SDS011;6179;51.748;8.728;2023-11-21T09:41:34;20.37;;;9.60;;
12232;SDS011;6179;51.748;8.728;2023-11-21T09:47:44;16.30;;;7.97;;
12232;SDS011;6179;51.748;8.728;2023-11-21T09:53:49;10.23;;;6.40;;
12232;SDS011;6179;51.748;8.728;2023-11-21T09:59:54;14.50;;;8.00;;
12232;SDS011;6179;51.748;8.728;2023-11-21T10:05:58;19.73;;;9.50;;
12232;SDS011;6179;51.748;8.728;2023-11-21T10:12:01;14.07;;;7.47;;
12232;SDS011;6179;51.748;8.728;2023-11-21T10:18:03;20.47;;;8.77;;
12232;SDS011;6179;51.748;8.728;2023-11-21T10:24:06;20.70;;;9.03;;
12232;SDS011;6179;51.748;8.728;2023-11-21T10:30:09;21.67;;;7.93;;
12232;SDS011;6179;51.748;8.728;2023-11-21T10:36:12;20.73;;;9.00;;
12232;SDS011;6179;51.748;8.728;2023-11-21T10:42:13;16.67;;;7.57;;
12232;SDS011;6179;51.748;8.728;2023-11-21T10:48:14;25.53;;;10.10;;
12232;SDS011;6179;51.748;8.728;2023-11-21T10:54:22;21.70;;;9.17;;
12232;SDS011;6179;51.748;8.728;2023-11-21T11:00:28;28.43;;;9.80;;
12232;SDS011;6179;51.748;8.728;2023-11-21T11:06:29;24.23;;;8.87;;
12232;SDS011;6179;51.748;8.728;2023-11-21T11:12:32;16.60;;;9.00;;
12232;SDS011;6179;51.748;8.728;2023-11-21T11:18:34;20.30;;;6.57;;
12232;SDS011;6179;51.748;8.728;2023-11-21T11:37:38;12.67;;;5.47;;
12232;SDS011;6179;51.748;8.728;2023-11-21T11:43:40;12.17;;;5.27;;
12232;SDS011;6179;51.748;8.728;2023-11-21T12:02:34;5.90;;;3.10;;
12232;SDS011;6179;51.748;8.728;2023-11-21T12:08:37;7.37;;;4.17;;
12232;SDS011;6179;51.748;8.728;2023-11-21T12:14:38;4.83;;;3.20;;
12232;SDS011;6179;51.748;8.728;2023-11-21T12:20:40;2.40;;;1.70;;
12232;SDS011;6179;51.748;8.728;2023-11-21T12:26:43;1.93;;;1.60;;
12232;SDS011;6179;51.748;8.728;2023-11-21T12:32:44;3.13;;;1.90;;
12232;SDS011;6179;51.748;8.728;2023-11-21T12:38:48;1.20;;;1.10;;
12232;SDS011;6179;51.748;8.728;2023-11-21T12:45:05;2.60;;;1.20;;
12232;SDS011;6179;51.748;8.728;2023-11-21T12:51:27;0.70;;;0.70;;
12232;SDS011;6179;51.748;8.728;2023-11-21T12:57:29;0.80;;;0.77;;
12232;SDS011;6179;51.748;8.728;2023-11-21T13:03:30;7.03;;;1.57;;
12232;SDS011;6179;51.748;8.728;2023-11-21T13:09:32;1.13;;;1.07;;
12232;SDS011;6179;51.748;8.728;2023-11-21T13:15:34;2.60;;;1.47;;
12232;SDS011;6179;51.748;8.728;2023-11-21T13:21:40;3.20;;;2.33;;
12232;SDS011;6179;51.748;8.728;2023-11-21T13:27:41;3.73;;;2.90;;
12232;SDS011;6179;51.748;8.728;2023-11-21T13:33:44;4.70;;;3.50;;
12232;SDS011;6179;51.748;8.728;2023-11-21T13:39:50;3.53;;;2.17;;
12232;SDS011;6179;51.748;8.728;2023-11-21T13:45:53;7.03;;;3.27;;
12232;SDS011;6179;51.748;8.728;2023-11-21T13:52:04;4.53;;;3.10;;
12232;SDS011;6179;51.748;8.728;2023-11-21T13:58:06;6.13;;;3.17;;
12232;SDS011;6179;51.748;8.728;2023-11-21T14:04:11;7.53;;;3.70;;
12232;SDS011;6179;51.748;8.728;2023-11-21T14:10:15;9.53;;;4.30;;
12232;SDS011;6179;51.748;8.728;2023-11-21T14:16:21;5.67;;;2.93;;
12232;SDS011;6179;51.748;8.728;2023-11-21T14:22:23;7.53;;;4.57;;
12232;SDS011;6179;51.748;8.728;2023-11-21T14:28:25;8.00;;;4.17;;
12232;SDS011;6179;51.748;8.728;2023-11-21T14:34:27;6.93;;;3.47;;
12232;SDS011;6179;51.748;8.728;2023-11-21T14:40:28;7.90;;;2.90;;
12232;SDS011;6179;51.748;8.728;2023-11-21T14:46:33;5.90;;;2.70;;
12232;SDS011;6179;51.748;8.728;2023-11-21T14:52:36;6.67;;;2.80;;
12232;SDS011;6179;51.748;8.728;2023-11-21T14:58:50;9.23;;;2.93;;
12232;SDS011;6179;51.748;8.728;2023-11-21T15:04:56;2.73;;;2.53;;
12232;SDS011;6179;51.748;8.728;2023-11-21T15:11:02;5.80;;;3.47;;
12232;SDS011;6179;51.748;8.728;2023-11-21T15:17:07;8.03;;;2.97;;
12232;SDS011;6179;51.748;8.728;2023-11-21T15:23:09;5.40;;;2.50;;
12232;SDS011;6179;51.748;8.728;2023-11-21T15:29:12;3.50;;;2.13;;
12232;SDS011;6179;51.748;8.728;2023-11-21T15:35:14;4.33;;;1.60;;
12232;SDS011;6179;51.748;8.728;2023-11-21T15:41:15;4.67;;;2.00;;
12232;SDS011;6179;51.748;8.728;2023-11-21T15:47:17;2.27;;;1.87;;
12232;SDS011;6179;51.748;8.728;2023-11-21T15:53:18;6.20;;;2.77;;
12232;SDS011;6179;51.748;8.728;2023-11-21T15:59:19;4.07;;;2.70;;
12232;SDS011;6179;51.748;8.728;2023-11-21T16:05:24;6.67;;;2.27;;
12232;SDS011;6179;51.748;8.728;2023-11-21T16:11:25;10.03;;;3.17;;
12232;SDS011;6179;51.748;8.728;2023-11-21T16:17:27;5.10;;;3.33;;
12232;SDS011;6179;51.748;8.728;2023-11-21T16:23:28;6.97;;;1.90;;
12232;SDS011;6179;51.748;8.728;2023-11-21T16:29:31;7.70;;;3.00;;
12232;SDS011;6179;51.748;8.728;2023-11-21T16:35:33;9.03;;;3.03;;
12232;SDS011;6179;51.748;8.728;2023-11-21T16:41:39;4.13;;;2.37;;
12232;SDS011;6179;51.748;8.728;2023-11-21T16:47:44;9.27;;;2.80;;
12232;SDS011;6179;51.748;8.728;2023-11-21T16:53:45;5.77;;;3.53;;
12232;SDS011;6179;51.748;8.728;2023-11-21T16:59:46;5.80;;;1.87;;
12232;SDS011;6179;51.748;8.728;2023-11-21T17:05:50;4.73;;;2.40;;
12232;SDS011;6179;51.748;8.728;2023-11-21T17:11:52;6.93;;;2.07;;
12232;SDS011;6179;51.748;8.728;2023-11-21T17:17:55;4.37;;;2.20;;
12232;SDS011;6179;51.748;8.728;2023-11-21T17:23:58;5.00;;;2.17;;
12232;SDS011;6179;51.748;8.728;2023-11-21T17:30:01;10.60;;;3.73;;
12232;SDS011;6179;51.748;8.728;2023-11-21T17:36:03;3.33;;;2.33;;
12232;SDS011;6179;51.748;8.728;2023-11-21T17:42:05;4.73;;;2.73;;
12232;SDS011;6179;51.748;8.728;2023-11-21T17:48:06;6.83;;;2.40;;
12232;SDS011;6179;51.748;8.728;2023-11-21T17:54:08;6.00;;;2.57;;
12232;SDS011;6179;51.748;8.728;2023-11-21T18:00:12;7.23;;;3.17;;
12232;SDS011;6179;51.748;8.728;2023-11-21T18:06:13;4.20;;;2.13;;
12232;SDS011;6179;51.748;8.728;2023-11-21T18:12:14;6.07;;;2.17;;
12232;SDS011;6179;51.748;8.728;2023-11-21T18:18:16;6.30;;;3.20;;
12232;SDS011;6179;51.748;8.728;2023-11-21T18:24:17;5.60;;;2.67;;
12232;SDS011;6179;51.748;8.728;2023-11-21T18:30:18;8.17;;;3.90;;
12232;SDS011;6179;51.748;8.728;2023-11-21T18:36:21;7.40;;;4.70;;
12232;SDS011;6179;51.748;8.728;2023-11-21T18:42:22;13.10;;;4.83;;
12232;SDS011;6179;51.748;8.728;2023-11-21T18:48:24;7.00;;;3.30;;
12232;SDS011;6179;51.748;8.728;2023-11-21T18:54:25;8.40;;;1.73;;
12232;SDS011;6179;51.748;8.728;2023-11-21T19:00:26;7.70;;;3.90;;
12232;SDS011;6179;51.748;8.728;2023-11-21T19:06:27;7.67;;;4.00;;
12232;SDS011;6179;51.748;8.728;2023-11-21T19:12:29;5.00;;;3.20;;
12232;SDS011;6179;51.748;8.728;2023-11-21T19:18:31;6.83;;;3.43;;
12232;SDS011;6179;51.748;8.728;2023-11-21T19:24:32;11.47;;;4.53;;
12232;SDS011;6179;51.748;8.728;2023-11-21T19:30:33;3.77;;;2.93;;
12232;SDS011;6179;51.748;8.728;2023-11-21T19:36:38;16.07;;;2.33;;
12232;SDS011;6179;51.748;8.728;2023-11-21T19:42:41;5.23;;;2.60;;
12232;SDS011;6179;51.748;8.728;2023-11-21T19:48:42;3.53;;;2.30;;
12232;SDS011;6179;51.748;8.728;2023-11-21T19:54:44;2.10;;;2.00;;
12232;SDS011;6179;51.748;8.728;2023-11-21T20:00:46;4.10;;;2.70;;
12232;SDS011;6179;51.748;8.728;2023-11-21T20:06:47;3.10;;;1.70;;
12232;SDS011;6179;51.748;8.728;2023-11-21T20:12:53;3.43;;;1.83;;
12232;SDS011;6179;51.748;8.728;2023-11-21T20:18:54;6.40;;;2.50;;
12232;SDS011;6179;51.748;8.728;2023-11-21T20:24:55;3.17;;;2.17;;
12232;SDS011;6179;51.748;8.728;2023-11-21T20:30:57;3.20;;;1.63;;
12232;SDS011;6179;51.748;8.728;2023-11-21T20:36:58;6.40;;;2.53;;
12232;SDS011;6179;51.748;8.728;2023-11-21T20:42:59;2.10;;;1.53;;
12232;SDS011;6179;51.748;8.728;2023-11-21T20:49:03;3.23;;;1.90;;
12232;SDS011;6179;51.748;8.728;2023-11-21T20:55:04;6.60;;;2.17;;
12232;SDS011;6179;51.748;8.728;2023-11-21T21:01:06;9.57;;;3.17;;
12232;SDS011;6179;51.748;8.728;2023-11-21T21:07:07;1.80;;;1.53;;
12232;SDS011;6179;51.748;8.728;2023-11-21T21:13:08;7.70;;;2.90;;
12232;SDS011;6179;51.748;8.728;2023-11-21T21:19:11;2.20;;;1.23;;
12232;SDS011;6179;51.748;8.728;2023-11-21T21:25:13;3.50;;;1.80;;
12232;SDS011;6179;51.748;8.728;2023-11-21T21:31:14;2.40;;;1.30;;
12232;SDS011;6179;51.748;8.728;2023-11-21T21:37:16;3.10;;;2.23;;
12232;SDS011;6179;51.748;8.728;2023-11-21T21:43:17;8.33;;;2.73;;
12232;SDS011;6179;51.748;8.728;2023-11-21T21:49:20;8.43;;;2.33;;
12232;SDS011;6179;51.748;8.728;2023-11-21T21:55:21;5.07;;;2.60;;
12232;SDS011;6179;51.748;8.728;2023-11-21T22:01:23;1.87;;;1.77;;
12232;SDS011;6179;51.748;8.728;2023-11-21T22:07:25;6.60;;;2.33;;
12232;SDS011;6179;51.748;8.728;2023-11-21T22:13:26;3.63;;;1.77;;
12232;SDS011;6179;51.748;8.728;2023-11-21T22:19:27;1.87;;;1.50;;
12232;SDS011;6179;51.748;8.728;2023-11-21T22:25:29;1.47;;;1.37;;
12232;SDS011;6179;51.748;8.728;2023-11-21T22:31:30;10.80;;;1.50;;
12232;SDS011;6179;51.748;8.728;2023-11-21T22:37:31;2.70;;;1.63;;
12232;SDS011;6179;51.748;8.728;2023-11-21T22:43:32;3.50;;;1.50;;
12232;SDS011;6179;51.748;8.728;2023-11-21T22:49:33;2.90;;;2.10;;
12232;SDS011;6179;51.748;8.728;2023-11-21T22:55:34;1.20;;;1.00;;
12232;SDS011;6179;51.748;8.728;2023-11-21T23:01:37;1.50;;;1.23;;
12232;SDS011;6179;51.748;8.728;2023-11-21T23:07:38;1.83;;;1.00;;
12232;SDS011;6179;51.748;8.728;2023-11-21T23:13:39;1.30;;;1.00;;
12232;SDS011;6179;51.748;8.728;2023-11-21T23:19:40;5.70;;;1.60;;
12232;SDS011;6179;51.748;8.728;2023-11-21T23:25:42;0.83;;;0.60;;
12232;SDS011;6179;51.748;8.728;2023-11-21T23:31:43;1.63;;;0.80;;
12232;SDS011;6179;51.748;8.728;2023-11-21T23:37:44;1.77;;;0.90;;
12232;SDS011;6179;51.748;8.728;2023-11-21T23:43:45;1.80;;;1.07;;
12232;SDS011;6179;51.748;8.728;2023-11-21T23:49:47;1.97;;;1.07;;
12232;SDS011;6179;51.748;8.728;2023-11-21T23:55:48;1.17;;;0.90;;
